createdAt,value
2022-09-16T00:00:08.263Z,67.00
2022-09-16T00:01:08.301Z,66.90
2022-09-16T00:02:08.296Z,66.90
2022-09-16T00:03:08.247Z,66.90
2022-09-16T00:04:08.241Z,66.80
2022-09-16T00:05:08.243Z,67.19
2022-09-16T00:06:08.238Z,67.25
2022-09-16T00:07:08.233Z,66.90
2022-09-16T00:08:08.220Z,67.54
2022-09-16T00:09:08.222Z,67.54
2022-09-16T00:10:08.222Z,67.35
2022-09-16T00:11:08.208Z,67.54
2022-09-16T00:12:08.231Z,67.44
2022-09-16T00:13:08.206Z,67.54
2022-09-16T00:14:08.198Z,67.73
2022-09-16T00:15:08.197Z,67.63
2022-09-16T00:16:08.246Z,67.73
2022-09-16T00:17:08.179Z,67.35
2022-09-16T00:18:11.419Z,67.73
2022-09-16T00:19:08.176Z,67.73
2022-09-16T00:20:08.162Z,67.54
2022-09-16T00:21:50.544Z,67.83
2022-09-16T00:22:50.533Z,68.21
2022-09-16T00:23:50.527Z,67.83
2022-09-16T00:24:50.522Z,67.92
2022-09-16T00:25:50.523Z,67.63
2022-09-16T00:26:50.523Z,68.02
2022-09-16T00:27:50.523Z,67.83
2022-09-16T00:28:50.508Z,68.12
2022-09-16T00:29:50.499Z,68.12
2022-09-16T00:30:50.500Z,67.92
2022-09-16T00:31:50.567Z,68.02
2022-09-16T00:32:50.480Z,68.02
2022-09-16T00:33:50.474Z,68.12
2022-09-16T00:34:50.476Z,67.63
2022-09-16T00:35:50.474Z,67.92
2022-09-16T00:36:50.471Z,67.63
2022-09-16T00:37:50.465Z,67.54
2022-09-16T00:38:50.459Z,67.54
2022-09-16T00:39:50.502Z,67.44
2022-09-16T00:40:50.456Z,67.54
2022-09-16T00:41:50.439Z,67.35
2022-09-16T00:42:50.448Z,67.35
2022-09-16T00:43:50.468Z,67.44
2022-09-16T00:44:50.431Z,67.73
2022-09-16T00:45:50.426Z,67.63
2022-09-16T00:46:50.573Z,67.63
2022-09-16T00:47:50.419Z,67.54
2022-09-16T00:48:50.405Z,67.54
2022-09-16T00:49:50.401Z,67.44
2022-09-16T00:50:50.398Z,67.44
2022-09-16T00:51:50.396Z,67.35
2022-09-16T00:52:50.401Z,67.73
2022-09-16T00:53:50.387Z,67.35
2022-09-16T00:54:50.384Z,67.63
2022-09-16T00:55:50.370Z,67.63
2022-09-16T00:56:50.370Z,67.63
2022-09-16T00:57:50.364Z,67.83
2022-09-16T00:58:50.357Z,67.44
2022-09-16T00:59:50.389Z,67.83
2022-09-16T01:00:50.472Z,67.92
2022-09-16T01:01:50.493Z,67.73
2022-09-16T01:02:50.344Z,67.73
2022-09-16T01:03:50.337Z,66.96
2022-09-16T01:04:50.339Z,66.86
2022-09-16T01:05:50.336Z,67.83
2022-09-16T01:06:50.323Z,67.63
2022-09-16T01:07:50.324Z,67.54
2022-09-16T01:08:50.314Z,67.54
2022-09-16T01:09:50.319Z,67.54
2022-09-16T01:10:50.309Z,67.16
2022-09-16T01:11:50.324Z,67.35
2022-09-16T01:12:50.305Z,67.44
2022-09-16T01:13:50.295Z,67.73
2022-09-16T01:14:50.292Z,67.73
2022-09-16T01:15:50.331Z,67.35
2022-09-16T01:16:50.284Z,67.44
2022-09-16T01:17:50.285Z,68.02
2022-09-16T01:18:50.277Z,67.63
2022-09-16T01:19:50.268Z,67.92
2022-09-16T01:20:50.256Z,67.73
2022-09-16T01:21:50.254Z,67.54
2022-09-16T01:22:50.255Z,68.02
2022-09-16T01:23:50.243Z,67.92
2022-09-16T01:24:50.238Z,68.02
2022-09-16T01:25:50.238Z,67.54
2022-09-16T01:26:50.228Z,68.02
2022-09-16T01:27:50.236Z,67.54
2022-09-16T01:28:50.236Z,67.83
2022-09-16T01:29:50.223Z,67.83
2022-09-16T01:30:50.224Z,67.73
2022-09-16T01:31:50.319Z,67.73
2022-09-16T01:32:50.197Z,68.02
2022-09-16T01:33:50.205Z,67.73
2022-09-16T01:34:50.187Z,67.35
2022-09-16T01:35:50.198Z,67.73
2022-09-16T01:36:50.187Z,67.73
2022-09-16T01:37:50.185Z,67.44
2022-09-16T01:38:50.178Z,67.54
2022-09-16T01:39:50.237Z,67.63
2022-09-16T01:40:50.176Z,67.83
2022-09-16T01:41:50.152Z,67.73
2022-09-16T01:42:50.158Z,68.08
2022-09-16T01:43:50.145Z,67.99
2022-09-16T01:44:50.142Z,67.79
2022-09-16T01:45:50.146Z,68.08
2022-09-16T01:46:50.172Z,67.92
2022-09-16T01:47:50.155Z,68.02
2022-09-16T01:48:53.628Z,67.54
2022-09-16T01:49:50.118Z,67.63
2022-09-16T01:50:50.131Z,67.63
2022-09-16T01:51:50.121Z,67.44
2022-09-16T01:52:50.103Z,67.73
2022-09-16T01:53:50.114Z,67.50
2022-09-16T01:54:50.095Z,67.63
2022-09-16T01:55:50.084Z,67.60
2022-09-16T01:56:50.083Z,68.08
2022-09-16T01:57:50.084Z,68.08
2022-09-16T01:58:50.073Z,68.21
2022-09-16T01:59:50.075Z,67.99
2022-09-16T02:00:50.069Z,67.99
2022-09-16T02:01:50.214Z,68.21
2022-09-16T02:02:50.131Z,67.63
2022-09-16T02:03:50.072Z,68.08
2022-09-16T02:04:50.048Z,67.44
2022-09-16T02:05:50.051Z,67.54
2022-09-16T02:06:50.037Z,67.73
2022-09-16T02:07:50.033Z,67.54
2022-09-16T02:08:50.032Z,67.35
2022-09-16T02:09:50.026Z,67.73
2022-09-16T02:10:50.013Z,67.92
2022-09-16T02:11:50.018Z,67.60
2022-09-16T02:12:50.004Z,67.92
2022-09-16T02:13:50.015Z,67.54
2022-09-16T02:14:49.994Z,67.73
2022-09-16T02:15:50.030Z,67.63
2022-09-16T02:16:49.992Z,67.73
2022-09-16T02:17:49.987Z,67.73
2022-09-16T02:18:49.985Z,67.54
2022-09-16T02:19:49.987Z,67.54
2022-09-16T02:20:49.981Z,67.73
2022-09-16T02:21:49.969Z,67.73
2022-09-16T02:22:49.960Z,67.25
2022-09-16T02:23:49.960Z,67.44
2022-09-16T02:24:49.946Z,67.44
2022-09-16T02:25:49.958Z,67.35
2022-09-16T02:26:49.956Z,67.44
2022-09-16T02:27:49.937Z,67.54
2022-09-16T02:28:49.941Z,67.44
2022-09-16T02:29:49.926Z,67.44
2022-09-16T02:30:49.999Z,67.44
2022-09-16T02:31:54.952Z,67.44
2022-09-16T02:32:49.916Z,67.54
2022-09-16T02:33:49.906Z,67.73
2022-09-16T02:34:49.905Z,67.83
2022-09-16T02:35:49.929Z,67.54
2022-09-16T02:36:49.897Z,67.16
2022-09-16T02:37:49.885Z,67.73
2022-09-16T02:38:49.887Z,67.73
2022-09-16T02:39:49.957Z,67.54
2022-09-16T02:40:49.870Z,67.63
2022-09-16T02:41:49.877Z,67.44
2022-09-16T02:42:49.879Z,67.73
2022-09-16T02:43:49.865Z,67.35
2022-09-16T02:44:49.860Z,67.35
2022-09-16T02:45:49.854Z,67.73
2022-09-16T02:46:49.957Z,67.35
2022-09-16T02:47:49.842Z,67.73
2022-09-16T02:48:49.841Z,67.54
2022-09-16T02:49:49.859Z,67.54
2022-09-16T02:50:49.824Z,67.63
2022-09-16T02:51:49.835Z,67.54
2022-09-16T02:52:49.830Z,67.44
2022-09-16T02:53:49.821Z,67.54
2022-09-16T02:54:49.803Z,67.35
2022-09-16T02:55:49.803Z,67.54
2022-09-16T02:56:49.798Z,67.54
2022-09-16T02:57:49.797Z,68.02
2022-09-16T02:58:49.792Z,68.12
2022-09-16T02:59:49.789Z,68.02
2022-09-16T03:00:49.786Z,68.21
2022-09-16T03:01:49.909Z,68.02
2022-09-16T03:02:49.871Z,68.12
2022-09-16T03:03:49.762Z,67.92
2022-09-16T03:04:49.756Z,67.69
2022-09-16T03:05:49.757Z,67.69
2022-09-16T03:06:49.755Z,68.30
2022-09-16T03:07:49.766Z,68.18
2022-09-16T03:08:49.750Z,68.21
2022-09-16T03:09:49.746Z,68.18
2022-09-16T03:10:49.737Z,68.18
2022-09-16T03:11:49.723Z,68.18
2022-09-16T03:12:49.734Z,68.18
2022-09-16T03:13:49.724Z,68.02
2022-09-16T03:14:49.722Z,67.99
2022-09-16T03:15:49.757Z,68.02
2022-09-16T03:16:49.705Z,68.21
2022-09-16T03:17:49.695Z,67.89
2022-09-16T03:18:49.693Z,67.99
2022-09-16T03:19:49.680Z,68.27
2022-09-16T03:20:49.676Z,67.69
2022-09-16T03:21:49.682Z,67.83
2022-09-16T03:22:49.675Z,67.92
2022-09-16T03:23:49.682Z,68.12
2022-09-16T03:24:49.664Z,67.83
2022-09-16T03:25:49.666Z,68.02
2022-09-16T03:26:49.661Z,67.73
2022-09-16T03:27:49.648Z,67.73
2022-09-16T03:28:49.648Z,67.63
2022-09-16T03:29:49.637Z,67.35
2022-09-16T03:30:49.671Z,67.54
2022-09-16T03:31:49.641Z,67.44
2022-09-16T03:32:49.621Z,67.63
2022-09-16T03:33:49.621Z,67.63
2022-09-16T03:34:49.621Z,68.02
2022-09-16T03:35:49.640Z,67.83
2022-09-16T03:36:49.609Z,67.73
2022-09-16T03:37:49.596Z,68.40
2022-09-16T03:38:49.592Z,68.18
2022-09-16T03:39:49.678Z,68.27
2022-09-16T03:40:49.596Z,67.89
2022-09-16T03:41:49.588Z,68.21
2022-09-16T03:42:49.572Z,68.08
2022-09-16T03:43:49.577Z,68.59
2022-09-16T03:44:49.571Z,68.18
2022-09-16T03:45:49.558Z,68.18
2022-09-16T03:46:49.561Z,68.27
2022-09-16T03:47:49.564Z,68.46
2022-09-16T03:48:49.554Z,68.27
2022-09-16T03:49:49.541Z,68.66
2022-09-16T03:50:49.556Z,68.66
2022-09-16T03:51:49.535Z,68.66
2022-09-16T03:52:49.534Z,68.46
2022-09-16T03:53:49.524Z,68.56
2022-09-16T03:54:49.513Z,68.46
2022-09-16T03:55:49.530Z,68.18
2022-09-16T03:56:49.508Z,68.56
2022-09-16T03:57:49.507Z,68.18
2022-09-16T03:58:49.499Z,68.27
2022-09-16T03:59:49.498Z,68.27
2022-09-16T04:00:49.490Z,68.27
2022-09-16T04:01:49.578Z,68.56
2022-09-16T04:02:49.572Z,68.46
2022-09-16T04:03:49.481Z,68.46
2022-09-16T04:04:49.467Z,68.56
2022-09-16T04:05:49.463Z,68.30
2022-09-16T04:06:49.454Z,68.18
2022-09-16T04:07:49.452Z,68.12
2022-09-16T04:08:49.452Z,68.30
2022-09-16T04:09:49.453Z,68.18
2022-09-16T04:10:49.441Z,68.08
2022-09-16T04:11:49.453Z,67.99
2022-09-16T04:12:49.428Z,67.99
2022-09-16T04:13:49.423Z,67.99
2022-09-16T04:14:49.423Z,67.99
2022-09-16T04:15:49.465Z,68.46
2022-09-16T04:16:49.415Z,68.21
2022-09-16T04:17:49.418Z,68.18
2022-09-16T04:18:49.406Z,68.08
2022-09-16T04:19:49.401Z,67.99
2022-09-16T04:20:49.394Z,68.12
2022-09-16T04:21:49.481Z,67.89
2022-09-16T04:22:49.435Z,67.89
2022-09-16T04:23:49.438Z,68.18
2022-09-16T04:24:49.371Z,68.21
2022-09-16T04:25:49.373Z,67.99
2022-09-16T04:26:49.362Z,68.02
2022-09-16T04:27:49.378Z,68.12
2022-09-16T04:28:49.347Z,67.92
2022-09-16T04:29:49.351Z,68.50
2022-09-16T04:30:49.396Z,68.02
2022-09-16T04:31:49.342Z,67.83
2022-09-16T04:32:49.339Z,68.02
2022-09-16T04:33:49.357Z,68.02
2022-09-16T04:34:49.328Z,68.21
2022-09-16T04:35:49.333Z,68.18
2022-09-16T04:36:49.314Z,67.89
2022-09-16T04:37:49.321Z,67.99
2022-09-16T04:38:49.301Z,68.18
2022-09-16T04:39:49.367Z,68.18
2022-09-16T04:40:49.303Z,68.56
2022-09-16T04:41:49.315Z,68.18
2022-09-16T04:42:49.295Z,68.56
2022-09-16T04:43:49.307Z,68.21
2022-09-16T04:44:49.297Z,68.21
2022-09-16T04:45:49.349Z,68.40
2022-09-16T04:46:49.270Z,67.63
2022-09-16T04:47:49.268Z,67.83
2022-09-16T04:48:49.266Z,67.63
2022-09-16T04:49:49.278Z,67.35
2022-09-16T04:50:49.259Z,67.44
2022-09-16T04:51:49.242Z,67.09
2022-09-16T04:52:49.245Z,67.25
2022-09-16T04:53:49.249Z,67.00
2022-09-16T04:54:49.235Z,67.00
2022-09-16T04:55:49.230Z,66.71
2022-09-16T04:56:49.232Z,66.52
2022-09-16T04:57:49.227Z,67.00
2022-09-16T04:58:49.226Z,66.13
2022-09-16T04:59:49.244Z,66.52
2022-09-16T05:00:49.215Z,66.52
2022-09-16T05:01:49.314Z,66.42
2022-09-16T05:02:49.202Z,66.07
2022-09-16T05:03:49.204Z,65.97
2022-09-16T05:04:49.201Z,65.88
2022-09-16T05:05:49.203Z,65.97
2022-09-16T05:06:49.195Z,66.07
2022-09-16T05:07:49.204Z,65.88
2022-09-16T05:08:49.192Z,65.69
2022-09-16T05:09:49.190Z,65.49
2022-09-16T05:10:49.179Z,65.78
2022-09-16T05:11:49.182Z,65.78
2022-09-16T05:12:49.529Z,65.69
2022-09-16T05:13:49.187Z,65.20
2022-09-16T05:14:49.175Z,65.43
2022-09-16T05:15:51.248Z,65.43
2022-09-16T05:16:49.164Z,65.30
2022-09-16T05:17:51.517Z,65.14
2022-09-16T05:18:49.162Z,65.14
2022-09-16T05:19:49.167Z,65.33
2022-09-16T05:20:49.157Z,65.05
2022-09-16T05:21:49.162Z,65.23
2022-09-16T05:22:49.162Z,65.23
2022-09-16T05:23:49.237Z,65.43
2022-09-16T05:24:49.148Z,65.23
2022-09-16T05:25:49.149Z,65.14
2022-09-16T05:26:49.136Z,65.53
2022-09-16T05:27:49.174Z,65.62
2022-09-16T05:28:49.136Z,64.66
2022-09-16T05:29:49.136Z,65.72
2022-09-16T05:30:49.205Z,65.05
2022-09-16T05:31:49.244Z,65.05
2022-09-16T05:32:49.131Z,64.95
2022-09-16T05:33:49.124Z,65.05
2022-09-16T05:34:49.130Z,65.05
2022-09-16T05:35:49.119Z,65.05
2022-09-16T05:36:49.114Z,65.14
2022-09-16T05:37:49.114Z,65.27
2022-09-16T05:39:11.106Z,64.85
2022-09-16T05:39:49.178Z,64.79
2022-09-16T05:40:49.105Z,64.95
2022-09-16T05:41:49.101Z,64.85
2022-09-16T05:42:49.107Z,64.79
2022-09-16T05:43:49.100Z,64.89
2022-09-16T05:44:49.108Z,65.08
2022-09-16T05:45:49.126Z,65.08
2022-09-16T05:46:49.103Z,65.17
2022-09-16T05:47:49.205Z,64.98
2022-09-16T05:48:49.112Z,64.98
2022-09-16T05:49:49.097Z,65.17
2022-09-16T05:50:49.082Z,65.08
2022-09-16T05:51:49.092Z,64.98
2022-09-16T05:52:49.091Z,64.98
2022-09-16T05:53:49.082Z,65.08
2022-09-16T05:54:49.077Z,64.98
2022-09-16T05:55:49.083Z,64.98
2022-09-16T05:56:49.070Z,64.89
2022-09-16T05:57:49.074Z,64.98
2022-09-16T05:58:49.082Z,64.79
2022-09-16T05:59:49.074Z,64.89
2022-09-16T06:00:49.064Z,65.17
2022-09-16T06:01:49.116Z,65.17
2022-09-16T06:02:49.162Z,65.08
2022-09-16T06:03:49.184Z,65.17
2022-09-16T06:04:49.061Z,65.08
2022-09-16T06:05:49.066Z,65.17
2022-09-16T06:06:49.074Z,64.60
2022-09-16T06:07:49.073Z,64.63
2022-09-16T06:08:49.066Z,65.17
2022-09-16T06:09:49.064Z,65.08
2022-09-16T06:10:49.053Z,64.82
2022-09-16T06:11:49.053Z,65.11
2022-09-16T06:12:49.040Z,64.60
2022-09-16T06:13:49.054Z,64.69
2022-09-16T06:14:49.043Z,64.69
2022-09-16T06:15:49.128Z,64.98
2022-09-16T06:16:49.063Z,64.60
2022-09-16T06:17:49.044Z,65.11
2022-09-16T06:18:49.038Z,65.20
2022-09-16T06:19:49.157Z,65.08
2022-09-16T06:20:49.030Z,65.20
2022-09-16T06:21:49.034Z,65.01
2022-09-16T06:22:49.027Z,64.92
2022-09-16T06:23:49.034Z,65.11
2022-09-16T06:24:49.027Z,65.11
2022-09-16T06:25:49.041Z,65.01
2022-09-16T06:26:49.025Z,65.11
2022-09-16T06:27:49.017Z,65.01
2022-09-16T06:28:49.020Z,65.01
2022-09-16T06:29:49.024Z,64.82
2022-09-16T06:30:49.098Z,64.92
2022-09-16T06:31:49.025Z,65.01
2022-09-16T06:32:49.022Z,65.01
2022-09-16T06:33:49.013Z,65.01
2022-09-16T06:34:49.015Z,64.82
2022-09-16T06:35:49.130Z,64.63
2022-09-16T06:36:49.015Z,64.82
2022-09-16T06:37:49.017Z,64.82
2022-09-16T06:38:49.014Z,64.82
2022-09-16T06:39:49.037Z,64.73
2022-09-16T06:40:49.006Z,65.11
2022-09-16T06:41:49.000Z,65.11
2022-09-16T06:42:49.001Z,65.11
2022-09-16T06:43:49.012Z,65.11
2022-09-16T06:44:48.989Z,65.30
2022-09-16T06:45:49.053Z,65.01
2022-09-16T06:46:48.986Z,65.20
2022-09-16T06:47:48.995Z,65.01
2022-09-16T06:48:48.991Z,65.01
2022-09-16T06:49:48.986Z,65.01
2022-09-16T06:50:48.989Z,65.40
2022-09-16T06:51:49.096Z,64.92
2022-09-16T06:52:48.986Z,65.50
2022-09-16T06:53:48.986Z,65.11
2022-09-16T06:54:48.991Z,64.82
2022-09-16T06:55:48.978Z,64.92
2022-09-16T06:56:48.970Z,64.63
2022-09-16T06:57:48.972Z,65.01
2022-09-16T06:58:48.977Z,65.69
2022-09-16T06:59:48.968Z,64.73
2022-09-16T07:00:48.974Z,64.63
2022-09-16T07:01:48.975Z,64.82
2022-09-16T07:02:49.051Z,64.82
2022-09-16T07:03:48.979Z,65.20
2022-09-16T07:04:48.975Z,65.50
2022-09-16T07:05:48.968Z,65.30
2022-09-16T07:07:49.080Z,65.50
2022-09-16T07:08:48.965Z,65.50
2022-09-16T07:09:48.961Z,65.40
2022-09-16T07:10:48.960Z,65.40
2022-09-16T07:11:48.957Z,65.30
2022-09-16T07:12:48.954Z,65.40
2022-09-16T07:13:48.951Z,65.30
2022-09-16T07:14:48.957Z,65.20
2022-09-16T07:16:11.940Z,65.33
2022-09-16T07:16:48.961Z,65.30
2022-09-16T07:17:48.961Z,65.50
2022-09-16T07:18:48.948Z,65.97
2022-09-16T07:19:48.944Z,65.78
2022-09-16T07:20:48.949Z,66.04
2022-09-16T07:21:48.946Z,66.81
2022-09-16T07:22:48.937Z,67.19
2022-09-16T07:23:49.057Z,67.10
2022-09-16T07:24:48.939Z,67.29
2022-09-16T07:25:48.940Z,67.64
2022-09-16T07:26:48.949Z,67.64
2022-09-16T07:27:48.926Z,68.02
2022-09-16T07:28:48.925Z,68.28
2022-09-16T07:29:48.930Z,68.66
2022-09-16T07:30:48.939Z,68.76
2022-09-16T07:31:48.910Z,68.95
2022-09-16T07:32:48.926Z,68.76
2022-09-16T07:33:48.909Z,68.85
2022-09-16T07:34:48.906Z,68.95
2022-09-16T07:35:48.909Z,68.57
2022-09-16T07:36:49.029Z,68.91
2022-09-16T07:37:48.890Z,69.20
2022-09-16T07:38:48.919Z,69.01
2022-09-16T07:39:49.077Z,69.20
2022-09-16T07:40:48.888Z,69.40
2022-09-16T07:41:48.937Z,69.49
2022-09-16T07:42:48.871Z,69.40
2022-09-16T07:43:48.877Z,69.30
2022-09-16T07:44:48.870Z,69.87
2022-09-16T07:45:48.905Z,69.74
2022-09-16T07:46:48.866Z,69.74
2022-09-16T07:47:48.858Z,69.93
2022-09-16T07:48:48.857Z,69.93
2022-09-16T07:49:48.852Z,69.65
2022-09-16T07:50:48.849Z,69.56
2022-09-16T07:51:48.835Z,69.56
2022-09-16T07:52:48.843Z,69.65
2022-09-16T07:53:48.829Z,69.56
2022-09-16T07:54:48.820Z,69.74
2022-09-16T07:55:48.944Z,69.65
2022-09-16T07:56:48.821Z,69.65
2022-09-16T07:57:48.812Z,69.74
2022-09-16T07:58:48.809Z,69.65
2022-09-16T07:59:48.804Z,69.74
2022-09-16T08:00:48.802Z,69.56
2022-09-16T08:01:48.868Z,69.46
2022-09-16T08:02:48.896Z,69.65
2022-09-16T08:03:48.852Z,69.26
2022-09-16T08:04:48.786Z,69.26
2022-09-16T08:05:48.782Z,69.36
2022-09-16T08:06:48.771Z,69.26
2022-09-16T08:07:48.761Z,69.65
2022-09-16T08:08:48.760Z,69.65
2022-09-16T08:09:50.847Z,69.36
2022-09-16T08:10:48.749Z,69.17
2022-09-16T08:11:48.863Z,68.98
2022-09-16T08:12:48.740Z,69.17
2022-09-16T08:13:48.739Z,68.79
2022-09-16T08:14:48.728Z,68.98
2022-09-16T08:15:48.722Z,69.07
2022-09-16T08:16:48.772Z,69.26
2022-09-16T08:17:48.725Z,69.07
2022-09-16T08:18:48.709Z,68.98
2022-09-16T08:19:48.728Z,68.98
2022-09-16T08:20:48.706Z,69.07
2022-09-16T08:21:48.698Z,69.26
2022-09-16T08:22:48.717Z,69.07
2022-09-16T08:23:48.693Z,69.36
2022-09-16T08:24:48.679Z,69.07
2022-09-16T08:25:48.690Z,68.98
2022-09-16T08:26:48.733Z,69.07
2022-09-16T08:27:51.711Z,69.07
2022-09-16T08:29:07.804Z,69.07
2022-09-16T08:29:48.651Z,68.98
2022-09-16T08:30:51.391Z,69.17
2022-09-16T08:31:48.745Z,68.98
2022-09-16T08:32:48.644Z,68.98
2022-09-16T08:33:48.638Z,69.17
2022-09-16T08:34:48.632Z,69.07
2022-09-16T08:35:48.629Z,68.88
2022-09-16T08:36:48.630Z,68.79
2022-09-16T08:37:50.260Z,68.59
2022-09-16T08:38:48.619Z,68.69
2022-09-16T08:39:48.657Z,69.26
2022-09-16T08:40:48.605Z,69.17
2022-09-16T08:41:48.595Z,68.79
2022-09-16T08:42:48.599Z,68.98
2022-09-16T08:43:48.704Z,69.07
2022-09-16T08:44:48.588Z,69.07
2022-09-16T08:45:48.642Z,68.59
2022-09-16T08:46:48.577Z,68.59
2022-09-16T08:47:48.574Z,68.88
2022-09-16T08:48:48.572Z,68.69
2022-09-16T08:49:48.553Z,68.59
2022-09-16T08:50:48.572Z,68.50
2022-09-16T08:51:48.553Z,68.69
2022-09-16T08:52:48.544Z,68.21
2022-09-16T08:53:48.541Z,68.30
2022-09-16T08:54:48.535Z,68.59
2022-09-16T08:55:48.526Z,68.59
2022-09-16T08:56:48.536Z,68.21
2022-09-16T08:57:48.519Z,68.50
2022-09-16T08:58:48.514Z,68.59
2022-09-16T08:59:48.656Z,68.30
2022-09-16T09:00:48.537Z,68.30
2022-09-16T09:01:48.875Z,68.21
2022-09-16T09:02:48.828Z,68.21
2022-09-16T09:03:48.646Z,68.02
2022-09-16T09:04:48.494Z,68.12
2022-09-16T09:05:48.487Z,68.02
2022-09-16T09:06:48.479Z,68.02
2022-09-16T09:07:48.477Z,68.21
2022-09-16T09:08:48.477Z,68.21
2022-09-16T09:09:48.456Z,68.02
2022-09-16T09:10:48.467Z,68.02
2022-09-16T09:11:48.448Z,68.21
2022-09-16T09:12:49.212Z,68.21
2022-09-16T09:13:48.434Z,68.21
2022-09-16T09:14:48.453Z,68.21
2022-09-16T09:15:48.562Z,68.12
2022-09-16T09:16:48.529Z,68.21
2022-09-16T09:17:48.729Z,67.63
2022-09-16T09:18:48.425Z,67.73
2022-09-16T09:19:48.411Z,68.12
2022-09-16T09:20:48.409Z,67.92
2022-09-16T09:21:48.395Z,68.12
2022-09-16T09:22:48.407Z,67.73
2022-09-16T09:23:48.380Z,67.54
2022-09-16T09:24:48.386Z,67.83
2022-09-16T09:25:48.380Z,67.73
2022-09-16T09:26:48.382Z,67.54
2022-09-16T09:27:48.360Z,67.44
2022-09-16T09:28:48.369Z,67.16
2022-09-16T09:29:48.368Z,67.63
2022-09-16T09:30:48.366Z,67.35
2022-09-16T09:31:48.527Z,67.44
2022-09-16T09:32:49.710Z,67.73
2022-09-16T09:33:48.380Z,66.96
2022-09-16T09:34:48.331Z,67.06
2022-09-16T09:35:48.335Z,66.96
2022-09-16T09:36:48.317Z,67.16
2022-09-16T09:37:48.314Z,67.25
2022-09-16T09:38:48.328Z,66.96
2022-09-16T09:39:48.370Z,67.16
2022-09-16T09:40:48.298Z,67.25
2022-09-16T09:41:48.292Z,67.25
2022-09-16T09:42:48.294Z,66.71
2022-09-16T09:43:48.284Z,66.77
2022-09-16T09:44:48.374Z,66.80
2022-09-16T09:45:48.373Z,66.86
2022-09-16T09:46:48.274Z,67.06
2022-09-16T09:47:48.403Z,66.80
2022-09-16T09:48:48.277Z,66.77
2022-09-16T09:49:48.254Z,66.77
2022-09-16T09:50:48.264Z,66.96
2022-09-16T09:51:48.267Z,66.86
2022-09-16T09:52:48.264Z,66.61
2022-09-16T09:53:48.244Z,66.80
2022-09-16T09:54:48.253Z,66.58
2022-09-16T09:55:48.234Z,66.67
2022-09-16T09:56:48.242Z,66.58
2022-09-16T09:57:48.219Z,66.90
2022-09-16T09:58:48.212Z,66.49
2022-09-16T09:59:48.209Z,66.61
2022-09-16T10:00:48.262Z,66.42
2022-09-16T10:01:48.235Z,66.29
2022-09-16T10:02:50.035Z,66.00
2022-09-16T10:03:48.322Z,66.10
2022-09-16T10:04:48.200Z,66.39
2022-09-16T10:05:48.183Z,66.10
2022-09-16T10:06:48.197Z,66.29
2022-09-16T10:07:48.181Z,66.23
2022-09-16T10:08:48.176Z,66.33
2022-09-16T10:09:48.186Z,66.33
2022-09-16T10:10:48.167Z,66.29
2022-09-16T10:11:48.156Z,66.29
2022-09-16T10:12:48.147Z,66.03
2022-09-16T10:13:48.168Z,66.33
2022-09-16T10:14:48.149Z,66.23
2022-09-16T10:15:51.962Z,66.19
2022-09-16T10:16:48.210Z,66.39
2022-09-16T10:17:48.129Z,66.33
2022-09-16T10:18:48.147Z,66.58
2022-09-16T10:19:48.269Z,66.71
2022-09-16T10:20:48.117Z,66.49
2022-09-16T10:21:48.128Z,66.29
2022-09-16T10:22:48.105Z,66.61
2022-09-16T10:23:48.184Z,66.42
2022-09-16T10:24:48.086Z,66.00
2022-09-16T10:25:48.084Z,66.00
2022-09-16T10:26:48.084Z,65.62
2022-09-16T10:27:48.078Z,65.91
2022-09-16T10:28:48.075Z,66.00
2022-09-16T10:29:48.074Z,66.03
2022-09-16T10:30:48.061Z,65.84
2022-09-16T10:31:48.133Z,65.84
2022-09-16T10:32:48.057Z,65.94
2022-09-16T10:33:48.101Z,65.84
2022-09-16T10:34:48.047Z,65.94
2022-09-16T10:35:48.180Z,66.03
2022-09-16T10:36:48.032Z,65.94
2022-09-16T10:37:48.025Z,65.94
2022-09-16T10:38:48.023Z,66.13
2022-09-16T10:39:48.081Z,65.65
2022-09-16T10:40:48.011Z,65.56
2022-09-16T10:41:48.016Z,65.84
2022-09-16T10:42:48.051Z,65.65
2022-09-16T10:43:48.004Z,65.65
2022-09-16T10:44:48.011Z,65.56
2022-09-16T10:45:48.065Z,65.56
2022-09-16T10:46:47.990Z,65.46
2022-09-16T10:47:47.994Z,65.36
2022-09-16T10:48:47.974Z,64.98
2022-09-16T10:49:47.981Z,65.08
2022-09-16T10:50:47.968Z,64.98
2022-09-16T10:51:48.113Z,64.98
2022-09-16T10:52:47.967Z,64.98
2022-09-16T10:53:48.209Z,65.27
2022-09-16T10:54:47.962Z,65.27
2022-09-16T10:55:47.946Z,65.27
2022-09-16T10:56:47.959Z,65.08
2022-09-16T10:57:47.942Z,65.36
2022-09-16T10:58:47.937Z,65.46
2022-09-16T10:59:47.923Z,65.17
2022-09-16T11:00:47.937Z,65.17
2022-09-16T11:01:48.829Z,65.27
2022-09-16T11:02:47.921Z,65.17
2022-09-16T11:03:48.002Z,65.56
2022-09-16T11:04:47.915Z,64.79
2022-09-16T11:05:47.899Z,65.27
2022-09-16T11:06:47.903Z,64.98
2022-09-16T11:07:48.031Z,64.98
2022-09-16T11:08:47.889Z,65.08
2022-09-16T11:09:47.881Z,64.79
2022-09-16T11:10:47.877Z,64.69
2022-09-16T11:11:47.864Z,64.79
2022-09-16T11:12:47.873Z,64.89
2022-09-16T11:13:47.920Z,64.98
2022-09-16T11:14:47.859Z,64.98
2022-09-16T11:15:47.869Z,64.79
2022-09-16T11:16:47.870Z,64.79
2022-09-16T11:17:47.846Z,64.79
2022-09-16T11:18:50.835Z,64.69
2022-09-16T11:19:47.828Z,64.98
2022-09-16T11:20:47.828Z,64.98
2022-09-16T11:21:47.829Z,64.79
2022-09-16T11:22:47.833Z,64.89
2022-09-16T11:23:48.019Z,64.98
2022-09-16T11:24:47.820Z,65.08
2022-09-16T11:25:47.816Z,65.08
2022-09-16T11:26:47.813Z,64.50
2022-09-16T11:27:47.801Z,65.08
2022-09-16T11:28:47.878Z,65.08
2022-09-16T11:29:47.790Z,64.98
2022-09-16T11:30:47.797Z,64.98
2022-09-16T11:31:47.826Z,64.98
2022-09-16T11:32:47.909Z,64.50
2022-09-16T11:33:47.833Z,64.59
2022-09-16T11:34:47.763Z,64.79
2022-09-16T11:35:47.762Z,64.69
2022-09-16T11:36:47.752Z,64.59
2022-09-16T11:37:47.755Z,64.50
2022-09-16T11:38:47.752Z,64.59
2022-09-16T11:39:47.922Z,64.79
2022-09-16T11:40:47.738Z,64.98
2022-09-16T11:41:47.730Z,64.22
2022-09-16T11:42:47.732Z,64.22
2022-09-16T11:43:47.730Z,64.50
2022-09-16T11:44:47.734Z,64.40
2022-09-16T11:45:47.711Z,64.22
2022-09-16T11:46:47.780Z,64.50
2022-09-16T11:47:47.706Z,64.22
2022-09-16T11:48:47.817Z,64.02
2022-09-16T11:49:47.699Z,63.83
2022-09-16T11:50:47.692Z,64.31
2022-09-16T11:51:47.692Z,63.92
2022-09-16T11:52:48.003Z,63.92
2022-09-16T11:53:47.688Z,63.64
2022-09-16T11:54:47.666Z,63.45
2022-09-16T11:55:47.836Z,63.83
2022-09-16T11:56:47.672Z,63.64
2022-09-16T11:57:47.668Z,63.83
2022-09-16T11:58:47.750Z,63.64
2022-09-16T11:59:47.659Z,63.83
2022-09-16T12:00:47.651Z,63.35
2022-09-16T12:01:47.708Z,63.45
2022-09-16T12:02:47.689Z,63.45
2022-09-16T12:03:47.775Z,63.35
2022-09-16T12:04:47.634Z,63.45
2022-09-16T12:05:47.639Z,63.45
2022-09-16T12:06:47.613Z,63.73
2022-09-16T12:07:47.616Z,63.64
2022-09-16T12:08:47.660Z,63.76
2022-09-16T12:09:47.608Z,63.73
2022-09-16T12:10:47.605Z,63.73
2022-09-16T12:11:47.730Z,62.96
2022-09-16T12:12:47.594Z,63.06
2022-09-16T12:13:47.596Z,63.25
2022-09-16T12:14:47.582Z,62.96
2022-09-16T12:15:47.571Z,63.25
2022-09-16T12:16:47.585Z,63.25
2022-09-16T12:17:47.573Z,63.25
2022-09-16T12:18:47.702Z,63.25
2022-09-16T12:19:47.567Z,62.96
2022-09-16T12:20:47.555Z,63.25
2022-09-16T12:21:47.545Z,63.25
2022-09-16T12:22:47.550Z,63.25
2022-09-16T12:23:47.552Z,63.25
2022-09-16T12:24:47.527Z,63.25
2022-09-16T12:25:47.535Z,63.16
2022-09-16T12:26:47.537Z,63.25
2022-09-16T12:27:47.657Z,62.96
2022-09-16T12:28:47.514Z,63.45
2022-09-16T12:29:47.515Z,63.25
2022-09-16T12:30:47.556Z,62.96
2022-09-16T12:31:47.503Z,62.96
2022-09-16T12:32:47.522Z,63.35
2022-09-16T12:33:47.600Z,63.35
2022-09-16T12:34:47.485Z,63.35
2022-09-16T12:35:47.489Z,63.35
2022-09-16T12:36:47.477Z,63.16
2022-09-16T12:37:47.488Z,63.35
2022-09-16T12:38:47.547Z,63.83
2022-09-16T12:39:47.536Z,63.54
2022-09-16T12:40:47.476Z,63.35
2022-09-16T12:41:47.461Z,63.92
2022-09-16T12:42:47.451Z,63.54
2022-09-16T12:43:47.574Z,63.92
2022-09-16T12:44:47.438Z,64.31
2022-09-16T12:45:47.441Z,64.18
2022-09-16T12:46:47.518Z,64.56
2022-09-16T12:47:47.426Z,64.85
2022-09-16T12:48:47.436Z,64.76
2022-09-16T12:49:47.433Z,64.76
2022-09-16T12:50:47.416Z,65.23
2022-09-16T12:51:50.399Z,64.92
2022-09-16T12:52:47.402Z,65.11
2022-09-16T12:53:47.404Z,65.97